sensor_id;sensor_type;location;lat;lon;timestamp;P1;durP1;ratioP1;P2;durP2;ratioP2
12253;SDS011;6189;52.526;13.390;2022-12-10T00:00:30;18.47;;;14.60;;
12253;SDS011;6189;52.526;13.390;2022-12-10T00:03:15;20.70;;;15.27;;
12253;SDS011;6189;52.526;13.390;2022-12-10T00:06:03;19.50;;;15.10;;
12253;SDS011;6189;52.526;13.390;2022-12-10T00:08:51;19.97;;;14.73;;
12253;SDS011;6189;52.526;13.390;2022-12-10T00:11:37;19.53;;;14.70;;
12253;SDS011;6189;52.526;13.390;2022-12-10T00:14:22;22.50;;;15.87;;
12253;SDS011;6189;52.526;13.390;2022-12-10T00:17:08;24.20;;;17.00;;
12253;SDS011;6189;52.526;13.390;2022-12-10T00:19:54;23.63;;;16.33;;
12253;SDS011;6189;52.526;13.390;2022-12-10T00:22:41;21.83;;;16.03;;
12253;SDS011;6189;52.526;13.390;2022-12-10T00:25:26;24.37;;;17.37;;
12253;SDS011;6189;52.526;13.390;2022-12-10T00:28:12;20.30;;;15.63;;
12253;SDS011;6189;52.526;13.390;2022-12-10T00:31:01;24.07;;;17.00;;
12253;SDS011;6189;52.526;13.390;2022-12-10T00:33:48;22.50;;;17.23;;
12253;SDS011;6189;52.526;13.390;2022-12-10T00:36:35;24.03;;;17.17;;
12253;SDS011;6189;52.526;13.390;2022-12-10T00:39:23;23.50;;;17.53;;
12253;SDS011;6189;52.526;13.390;2022-12-10T00:42:09;21.73;;;16.77;;
12253;SDS011;6189;52.526;13.390;2022-12-10T00:44:54;19.07;;;15.30;;
12253;SDS011;6189;52.526;13.390;2022-12-10T00:47:40;21.00;;;16.77;;
12253;SDS011;6189;52.526;13.390;2022-12-10T00:50:26;22.93;;;16.30;;
12253;SDS011;6189;52.526;13.390;2022-12-10T00:53:11;21.43;;;15.53;;
12253;SDS011;6189;52.526;13.390;2022-12-10T00:55:59;21.00;;;16.00;;
12253;SDS011;6189;52.526;13.390;2022-12-10T00:58:44;22.07;;;16.47;;
12253;SDS011;6189;52.526;13.390;2022-12-10T01:01:32;23.87;;;16.17;;
12253;SDS011;6189;52.526;13.390;2022-12-10T01:04:18;20.57;;;15.33;;
12253;SDS011;6189;52.526;13.390;2022-12-10T01:07:04;22.50;;;15.63;;
12253;SDS011;6189;52.526;13.390;2022-12-10T01:09:50;24.70;;;16.53;;
12253;SDS011;6189;52.526;13.390;2022-12-10T01:12:37;20.73;;;15.40;;
12253;SDS011;6189;52.526;13.390;2022-12-10T01:15:22;22.73;;;15.73;;
12253;SDS011;6189;52.526;13.390;2022-12-10T01:18:08;21.97;;;16.77;;
12253;SDS011;6189;52.526;13.390;2022-12-10T01:20:54;21.43;;;15.30;;
12253;SDS011;6189;52.526;13.390;2022-12-10T01:23:41;22.77;;;16.57;;
12253;SDS011;6189;52.526;13.390;2022-12-10T01:26:29;22.27;;;15.13;;
12253;SDS011;6189;52.526;13.390;2022-12-10T01:29:18;20.93;;;15.83;;
12253;SDS011;6189;52.526;13.390;2022-12-10T01:32:04;20.63;;;15.50;;
12253;SDS011;6189;52.526;13.390;2022-12-10T01:34:49;23.17;;;15.73;;
12253;SDS011;6189;52.526;13.390;2022-12-10T01:37:35;22.10;;;15.53;;
12253;SDS011;6189;52.526;13.390;2022-12-10T01:40:21;21.93;;;15.83;;
12253;SDS011;6189;52.526;13.390;2022-12-10T01:43:09;24.03;;;16.77;;
12253;SDS011;6189;52.526;13.390;2022-12-10T01:45:58;22.70;;;16.90;;
12253;SDS011;6189;52.526;13.390;2022-12-10T01:48:44;21.23;;;15.17;;
12253;SDS011;6189;52.526;13.390;2022-12-10T01:51:30;23.33;;;17.33;;
12253;SDS011;6189;52.526;13.390;2022-12-10T01:54:20;19.63;;;15.20;;
12253;SDS011;6189;52.526;13.390;2022-12-10T01:57:08;21.27;;;16.10;;
12253;SDS011;6189;52.526;13.390;2022-12-10T01:59:59;20.83;;;15.73;;
12253;SDS011;6189;52.526;13.390;2022-12-10T02:02:49;19.67;;;15.63;;
12253;SDS011;6189;52.526;13.390;2022-12-10T02:05:41;20.93;;;14.00;;
12253;SDS011;6189;52.526;13.390;2022-12-10T02:08:30;17.67;;;14.80;;
12253;SDS011;6189;52.526;13.390;2022-12-10T02:11:22;21.23;;;14.70;;
12253;SDS011;6189;52.526;13.390;2022-12-10T02:14:16;19.20;;;14.73;;
12253;SDS011;6189;52.526;13.390;2022-12-10T02:17:06;21.47;;;15.77;;
12253;SDS011;6189;52.526;13.390;2022-12-10T02:20:02;18.93;;;14.20;;
12253;SDS011;6189;52.526;13.390;2022-12-10T02:22:54;19.77;;;14.50;;
12253;SDS011;6189;52.526;13.390;2022-12-10T02:25:45;19.83;;;14.27;;
12253;SDS011;6189;52.526;13.390;2022-12-10T02:28:37;19.47;;;14.83;;
12253;SDS011;6189;52.526;13.390;2022-12-10T02:31:28;20.90;;;15.20;;
12253;SDS011;6189;52.526;13.390;2022-12-10T02:34:17;19.53;;;15.27;;
12253;SDS011;6189;52.526;13.390;2022-12-10T02:37:07;21.03;;;15.60;;
12253;SDS011;6189;52.526;13.390;2022-12-10T02:39:57;17.97;;;14.40;;
12253;SDS011;6189;52.526;13.390;2022-12-10T02:42:46;19.50;;;15.30;;
12253;SDS011;6189;52.526;13.390;2022-12-10T02:45:34;20.17;;;14.77;;
12253;SDS011;6189;52.526;13.390;2022-12-10T02:48:22;21.63;;;15.13;;
12253;SDS011;6189;52.526;13.390;2022-12-10T02:51:08;19.97;;;15.83;;
12253;SDS011;6189;52.526;13.390;2022-12-10T02:54:00;20.03;;;14.77;;
12253;SDS011;6189;52.526;13.390;2022-12-10T02:56:49;21.87;;;15.80;;
12253;SDS011;6189;52.526;13.390;2022-12-10T02:59:42;19.80;;;14.80;;
12253;SDS011;6189;52.526;13.390;2022-12-10T03:02:42;22.13;;;16.63;;
12253;SDS011;6189;52.526;13.390;2022-12-10T03:05:42;21.57;;;16.70;;
12253;SDS011;6189;52.526;13.390;2022-12-10T03:08:34;21.90;;;16.20;;
12253;SDS011;6189;52.526;13.390;2022-12-10T03:11:23;26.10;;;17.33;;
12253;SDS011;6189;52.526;13.390;2022-12-10T03:14:11;19.93;;;13.97;;
12253;SDS011;6189;52.526;13.390;2022-12-10T03:17:00;21.27;;;15.93;;
12253;SDS011;6189;52.526;13.390;2022-12-10T03:19:47;21.37;;;16.13;;
12253;SDS011;6189;52.526;13.390;2022-12-10T03:22:36;22.03;;;16.60;;
12253;SDS011;6189;52.526;13.390;2022-12-10T03:25:26;21.40;;;16.00;;
12253;SDS011;6189;52.526;13.390;2022-12-10T03:28:15;19.63;;;15.80;;
12253;SDS011;6189;52.526;13.390;2022-12-10T03:31:04;23.80;;;16.13;;
12253;SDS011;6189;52.526;13.390;2022-12-10T03:33:51;20.20;;;15.80;;
12253;SDS011;6189;52.526;13.390;2022-12-10T03:36:38;22.60;;;17.63;;
12253;SDS011;6189;52.526;13.390;2022-12-10T03:39:26;24.70;;;17.07;;
12253;SDS011;6189;52.526;13.390;2022-12-10T03:42:12;23.30;;;17.67;;
12253;SDS011;6189;52.526;13.390;2022-12-10T03:44:58;26.47;;;18.07;;
12253;SDS011;6189;52.526;13.390;2022-12-10T03:47:44;21.53;;;16.47;;
12253;SDS011;6189;52.526;13.390;2022-12-10T03:50:29;24.40;;;17.80;;
12253;SDS011;6189;52.526;13.390;2022-12-10T03:53:15;22.77;;;17.80;;
12253;SDS011;6189;52.526;13.390;2022-12-10T03:56:02;24.13;;;17.50;;
12253;SDS011;6189;52.526;13.390;2022-12-10T03:58:48;26.03;;;18.40;;
12253;SDS011;6189;52.526;13.390;2022-12-10T04:01:33;23.70;;;17.80;;
12253;SDS011;6189;52.526;13.390;2022-12-10T04:04:19;24.63;;;17.50;;
12253;SDS011;6189;52.526;13.390;2022-12-10T04:07:04;23.47;;;16.00;;
12253;SDS011;6189;52.526;13.390;2022-12-10T04:09:51;23.50;;;17.27;;
12253;SDS011;6189;52.526;13.390;2022-12-10T04:12:38;23.60;;;17.87;;
12253;SDS011;6189;52.526;13.390;2022-12-10T04:15:23;22.40;;;16.70;;
12253;SDS011;6189;52.526;13.390;2022-12-10T04:18:26;22.77;;;17.10;;
12253;SDS011;6189;52.526;13.390;2022-12-10T04:21:12;22.93;;;16.70;;
12253;SDS011;6189;52.526;13.390;2022-12-10T04:24:15;24.63;;;17.53;;
12253;SDS011;6189;52.526;13.390;2022-12-10T04:27:20;22.53;;;17.10;;
12253;SDS011;6189;52.526;13.390;2022-12-10T04:30:09;22.80;;;16.87;;
12253;SDS011;6189;52.526;13.390;2022-12-10T04:32:56;26.33;;;17.93;;
12253;SDS011;6189;52.526;13.390;2022-12-10T04:35:41;21.93;;;17.03;;
12253;SDS011;6189;52.526;13.390;2022-12-10T04:38:27;21.27;;;16.07;;
12253;SDS011;6189;52.526;13.390;2022-12-10T04:41:13;19.33;;;15.63;;
12253;SDS011;6189;52.526;13.390;2022-12-10T04:43:58;20.13;;;15.83;;
12253;SDS011;6189;52.526;13.390;2022-12-10T04:46:45;21.30;;;16.40;;
12253;SDS011;6189;52.526;13.390;2022-12-10T04:49:32;23.47;;;17.47;;
12253;SDS011;6189;52.526;13.390;2022-12-10T04:52:18;21.20;;;16.30;;
12253;SDS011;6189;52.526;13.390;2022-12-10T04:55:03;21.53;;;15.97;;
12253;SDS011;6189;52.526;13.390;2022-12-10T04:57:50;21.80;;;16.13;;
12253;SDS011;6189;52.526;13.390;2022-12-10T05:00:36;20.67;;;16.07;;
12253;SDS011;6189;52.526;13.390;2022-12-10T05:03:23;21.37;;;16.87;;
12253;SDS011;6189;52.526;13.390;2022-12-10T05:06:09;22.37;;;15.67;;
12253;SDS011;6189;52.526;13.390;2022-12-10T05:08:57;20.77;;;16.20;;
12253;SDS011;6189;52.526;13.390;2022-12-10T05:11:42;20.80;;;16.87;;
12253;SDS011;6189;52.526;13.390;2022-12-10T05:14:28;23.33;;;16.77;;
12253;SDS011;6189;52.526;13.390;2022-12-10T05:17:14;20.77;;;16.20;;
12253;SDS011;6189;52.526;13.390;2022-12-10T05:20:01;20.00;;;16.13;;
12253;SDS011;6189;52.526;13.390;2022-12-10T05:22:47;21.73;;;16.90;;
12253;SDS011;6189;52.526;13.390;2022-12-10T05:25:57;19.47;;;15.33;;
12253;SDS011;6189;52.526;13.390;2022-12-10T05:28:43;18.40;;;14.70;;
12253;SDS011;6189;52.526;13.390;2022-12-10T05:31:31;21.70;;;15.90;;
12253;SDS011;6189;52.526;13.390;2022-12-10T05:34:16;18.50;;;15.00;;
12253;SDS011;6189;52.526;13.390;2022-12-10T05:37:03;19.90;;;15.87;;
12253;SDS011;6189;52.526;13.390;2022-12-10T05:39:49;17.60;;;14.67;;
12253;SDS011;6189;52.526;13.390;2022-12-10T05:42:35;21.37;;;15.27;;
12253;SDS011;6189;52.526;13.390;2022-12-10T05:45:20;19.43;;;14.97;;
12253;SDS011;6189;52.526;13.390;2022-12-10T05:48:06;19.10;;;13.90;;
12253;SDS011;6189;52.526;13.390;2022-12-10T05:50:53;17.20;;;13.67;;
12253;SDS011;6189;52.526;13.390;2022-12-10T05:53:40;17.30;;;14.20;;
12253;SDS011;6189;52.526;13.390;2022-12-10T05:56:26;17.77;;;14.17;;
12253;SDS011;6189;52.526;13.390;2022-12-10T05:59:12;16.27;;;13.63;;
12253;SDS011;6189;52.526;13.390;2022-12-10T06:01:57;18.60;;;14.80;;
12253;SDS011;6189;52.526;13.390;2022-12-10T06:04:43;17.13;;;13.83;;
12253;SDS011;6189;52.526;13.390;2022-12-10T06:07:29;16.63;;;13.77;;
12253;SDS011;6189;52.526;13.390;2022-12-10T06:10:16;16.43;;;13.97;;
12253;SDS011;6189;52.526;13.390;2022-12-10T06:13:02;19.03;;;14.60;;
12253;SDS011;6189;52.526;13.390;2022-12-10T06:15:47;16.77;;;13.23;;
12253;SDS011;6189;52.526;13.390;2022-12-10T06:18:33;18.60;;;14.17;;
12253;SDS011;6189;52.526;13.390;2022-12-10T06:21:19;17.00;;;14.00;;
12253;SDS011;6189;52.526;13.390;2022-12-10T06:24:05;16.50;;;13.20;;
12253;SDS011;6189;52.526;13.390;2022-12-10T06:26:53;17.80;;;14.47;;
12253;SDS011;6189;52.526;13.390;2022-12-10T06:29:39;15.87;;;13.40;;
12253;SDS011;6189;52.526;13.390;2022-12-10T06:32:24;17.97;;;13.37;;
12253;SDS011;6189;52.526;13.390;2022-12-10T06:35:10;17.03;;;13.13;;
12253;SDS011;6189;52.526;13.390;2022-12-10T06:37:56;16.17;;;13.27;;
12253;SDS011;6189;52.526;13.390;2022-12-10T06:40:42;18.50;;;13.13;;
12253;SDS011;6189;52.526;13.390;2022-12-10T06:43:29;13.63;;;12.17;;
12253;SDS011;6189;52.526;13.390;2022-12-10T06:46:15;17.53;;;12.93;;
12253;SDS011;6189;52.526;13.390;2022-12-10T06:49:02;15.30;;;12.03;;
12253;SDS011;6189;52.526;13.390;2022-12-10T06:51:49;16.13;;;12.67;;
12253;SDS011;6189;52.526;13.390;2022-12-10T06:54:35;15.47;;;12.27;;
12253;SDS011;6189;52.526;13.390;2022-12-10T06:57:21;15.30;;;12.27;;
12253;SDS011;6189;52.526;13.390;2022-12-10T07:00:08;14.83;;;12.47;;
12253;SDS011;6189;52.526;13.390;2022-12-10T07:02:54;15.77;;;12.13;;
12253;SDS011;6189;52.526;13.390;2022-12-10T07:05:40;14.40;;;12.03;;
12253;SDS011;6189;52.526;13.390;2022-12-10T07:08:26;14.37;;;12.20;;
12253;SDS011;6189;52.526;13.390;2022-12-10T07:11:13;16.27;;;12.20;;
12253;SDS011;6189;52.526;13.390;2022-12-10T07:13:59;15.07;;;12.70;;
12253;SDS011;6189;52.526;13.390;2022-12-10T07:16:46;15.47;;;12.07;;
12253;SDS011;6189;52.526;13.390;2022-12-10T07:19:32;14.60;;;12.47;;
12253;SDS011;6189;52.526;13.390;2022-12-10T07:22:17;15.10;;;12.03;;
12253;SDS011;6189;52.526;13.390;2022-12-10T07:25:03;16.13;;;12.67;;
12253;SDS011;6189;52.526;13.390;2022-12-10T07:27:49;16.40;;;12.47;;
12253;SDS011;6189;52.526;13.390;2022-12-10T07:30:34;13.07;;;11.13;;
12253;SDS011;6189;52.526;13.390;2022-12-10T07:33:21;14.43;;;11.83;;
12253;SDS011;6189;52.526;13.390;2022-12-10T07:36:07;13.53;;;11.37;;
12253;SDS011;6189;52.526;13.390;2022-12-10T07:38:54;16.40;;;12.40;;
12253;SDS011;6189;52.526;13.390;2022-12-10T07:41:40;12.87;;;11.47;;
12253;SDS011;6189;52.526;13.390;2022-12-10T07:44:26;13.63;;;11.73;;
12253;SDS011;6189;52.526;13.390;2022-12-10T07:47:11;13.17;;;11.40;;
12253;SDS011;6189;52.526;13.390;2022-12-10T07:49:58;13.33;;;11.27;;
12253;SDS011;6189;52.526;13.390;2022-12-10T07:52:44;14.50;;;11.80;;
12253;SDS011;6189;52.526;13.390;2022-12-10T07:55:30;14.30;;;11.30;;
12253;SDS011;6189;52.526;13.390;2022-12-10T07:58:15;14.07;;;11.47;;
12253;SDS011;6189;52.526;13.390;2022-12-10T08:01:05;14.53;;;11.73;;
12253;SDS011;6189;52.526;13.390;2022-12-10T08:03:51;15.27;;;11.90;;
12253;SDS011;6189;52.526;13.390;2022-12-10T08:06:41;14.83;;;11.83;;
12253;SDS011;6189;52.526;13.390;2022-12-10T08:09:26;13.20;;;11.80;;
12253;SDS011;6189;52.526;13.390;2022-12-10T08:12:12;14.73;;;11.80;;
12253;SDS011;6189;52.526;13.390;2022-12-10T08:14:58;14.67;;;11.93;;
12253;SDS011;6189;52.526;13.390;2022-12-10T08:17:44;13.83;;;11.63;;
12253;SDS011;6189;52.526;13.390;2022-12-10T08:20:30;13.63;;;12.03;;
12253;SDS011;6189;52.526;13.390;2022-12-10T08:23:17;13.93;;;11.57;;
12253;SDS011;6189;52.526;13.390;2022-12-10T08:26:03;12.53;;;11.20;;
12253;SDS011;6189;52.526;13.390;2022-12-10T08:28:49;13.80;;;11.70;;
12253;SDS011;6189;52.526;13.390;2022-12-10T08:31:35;14.30;;;12.13;;
12253;SDS011;6189;52.526;13.390;2022-12-10T08:34:21;14.23;;;12.00;;
12253;SDS011;6189;52.526;13.390;2022-12-10T08:37:07;14.77;;;12.13;;
12253;SDS011;6189;52.526;13.390;2022-12-10T08:39:54;14.47;;;12.07;;
12253;SDS011;6189;52.526;13.390;2022-12-10T08:42:39;14.57;;;12.43;;
12253;SDS011;6189;52.526;13.390;2022-12-10T08:45:25;13.23;;;11.57;;
12253;SDS011;6189;52.526;13.390;2022-12-10T08:48:11;15.67;;;13.60;;
12253;SDS011;6189;52.526;13.390;2022-12-10T08:50:56;13.97;;;12.47;;
12253;SDS011;6189;52.526;13.390;2022-12-10T08:53:42;14.67;;;12.73;;
12253;SDS011;6189;52.526;13.390;2022-12-10T08:56:29;13.60;;;12.13;;
12253;SDS011;6189;52.526;13.390;2022-12-10T08:59:15;18.37;;;13.30;;
12253;SDS011;6189;52.526;13.390;2022-12-10T09:02:01;17.67;;;12.43;;
12253;SDS011;6189;52.526;13.390;2022-12-10T09:04:46;16.17;;;11.93;;
12253;SDS011;6189;52.526;13.390;2022-12-10T09:07:33;13.00;;;11.30;;
12253;SDS011;6189;52.526;13.390;2022-12-10T09:10:18;14.50;;;12.53;;
12253;SDS011;6189;52.526;13.390;2022-12-10T09:13:06;17.57;;;13.53;;
12253;SDS011;6189;52.526;13.390;2022-12-10T09:15:52;13.63;;;11.73;;
12253;SDS011;6189;52.526;13.390;2022-12-10T09:18:38;15.10;;;13.37;;
12253;SDS011;6189;52.526;13.390;2022-12-10T09:21:24;13.60;;;12.10;;
12253;SDS011;6189;52.526;13.390;2022-12-10T09:24:10;14.97;;;12.77;;
12253;SDS011;6189;52.526;13.390;2022-12-10T09:26:55;15.10;;;12.80;;
12253;SDS011;6189;52.526;13.390;2022-12-10T09:29:42;14.93;;;13.17;;
12253;SDS011;6189;52.526;13.390;2022-12-10T09:32:28;14.70;;;12.97;;
12253;SDS011;6189;52.526;13.390;2022-12-10T09:35:13;16.37;;;12.80;;
12253;SDS011;6189;52.526;13.390;2022-12-10T09:37:59;16.63;;;13.50;;
12253;SDS011;6189;52.526;13.390;2022-12-10T09:40:45;16.17;;;14.20;;
12253;SDS011;6189;52.526;13.390;2022-12-10T09:43:39;17.20;;;13.97;;
12253;SDS011;6189;52.526;13.390;2022-12-10T09:46:35;14.33;;;12.73;;
12253;SDS011;6189;52.526;13.390;2022-12-10T09:49:33;15.70;;;13.80;;
12253;SDS011;6189;52.526;13.390;2022-12-10T09:52:31;15.93;;;13.53;;
12253;SDS011;6189;52.526;13.390;2022-12-10T09:55:22;14.23;;;12.47;;
12253;SDS011;6189;52.526;13.390;2022-12-10T09:58:17;16.13;;;13.50;;
12253;SDS011;6189;52.526;13.390;2022-12-10T10:01:05;15.57;;;13.40;;
12253;SDS011;6189;52.526;13.390;2022-12-10T10:03:58;15.40;;;13.60;;
12253;SDS011;6189;52.526;13.390;2022-12-10T10:06:43;16.87;;;14.20;;
12253;SDS011;6189;52.526;13.390;2022-12-10T10:09:29;16.23;;;13.47;;
12253;SDS011;6189;52.526;13.390;2022-12-10T10:12:26;14.60;;;12.73;;
12253;SDS011;6189;52.526;13.390;2022-12-10T10:15:13;18.17;;;13.53;;
12253;SDS011;6189;52.526;13.390;2022-12-10T10:18:05;16.07;;;13.80;;
12253;SDS011;6189;52.526;13.390;2022-12-10T10:20:59;14.83;;;12.63;;
12253;SDS011;6189;52.526;13.390;2022-12-10T10:23:46;15.83;;;13.27;;
12253;SDS011;6189;52.526;13.390;2022-12-10T10:26:32;15.63;;;13.20;;
12253;SDS011;6189;52.526;13.390;2022-12-10T10:29:18;14.00;;;12.53;;
12253;SDS011;6189;52.526;13.390;2022-12-10T10:32:11;19.17;;;13.73;;
12253;SDS011;6189;52.526;13.390;2022-12-10T10:34:59;16.73;;;13.53;;
12253;SDS011;6189;52.526;13.390;2022-12-10T10:37:46;15.30;;;12.97;;
12253;SDS011;6189;52.526;13.390;2022-12-10T10:40:33;15.60;;;13.70;;
12253;SDS011;6189;52.526;13.390;2022-12-10T10:43:25;16.53;;;12.87;;
12253;SDS011;6189;52.526;13.390;2022-12-10T10:46:12;14.70;;;13.07;;
12253;SDS011;6189;52.526;13.390;2022-12-10T10:49:12;16.00;;;12.90;;
12253;SDS011;6189;52.526;13.390;2022-12-10T10:52:00;14.43;;;12.93;;
12253;SDS011;6189;52.526;13.390;2022-12-10T10:54:50;16.00;;;13.53;;
12253;SDS011;6189;52.526;13.390;2022-12-10T10:57:36;16.33;;;13.90;;
12253;SDS011;6189;52.526;13.390;2022-12-10T11:00:22;15.57;;;13.73;;
12253;SDS011;6189;52.526;13.390;2022-12-10T11:03:08;17.03;;;14.37;;
12253;SDS011;6189;52.526;13.390;2022-12-10T11:05:55;16.00;;;13.13;;
12253;SDS011;6189;52.526;13.390;2022-12-10T11:08:41;14.63;;;13.13;;
12253;SDS011;6189;52.526;13.390;2022-12-10T11:11:32;15.90;;;13.17;;
12253;SDS011;6189;52.526;13.390;2022-12-10T11:14:23;17.07;;;14.30;;
12253;SDS011;6189;52.526;13.390;2022-12-10T11:17:16;16.77;;;13.60;;
12253;SDS011;6189;52.526;13.390;2022-12-10T11:20:13;16.60;;;14.43;;
12253;SDS011;6189;52.526;13.390;2022-12-10T11:23:02;18.00;;;13.70;;
12253;SDS011;6189;52.526;13.390;2022-12-10T11:25:55;15.23;;;12.73;;
12253;SDS011;6189;52.526;13.390;2022-12-10T11:28:53;17.77;;;15.30;;
12253;SDS011;6189;52.526;13.390;2022-12-10T11:31:49;15.70;;;13.37;;
12253;SDS011;6189;52.526;13.390;2022-12-10T11:34:45;16.63;;;13.67;;
12253;SDS011;6189;52.526;13.390;2022-12-10T11:37:46;16.47;;;13.77;;
12253;SDS011;6189;52.526;13.390;2022-12-10T11:40:38;16.70;;;13.67;;
12253;SDS011;6189;52.526;13.390;2022-12-10T11:43:35;17.17;;;14.17;;
12253;SDS011;6189;52.526;13.390;2022-12-10T11:46:41;17.43;;;14.17;;
12253;SDS011;6189;52.526;13.390;2022-12-10T11:49:38;15.80;;;13.63;;
12253;SDS011;6189;52.526;13.390;2022-12-10T11:52:44;15.40;;;13.37;;
12253;SDS011;6189;52.526;13.390;2022-12-10T11:55:43;15.03;;;12.83;;
12253;SDS011;6189;52.526;13.390;2022-12-10T11:58:43;15.80;;;13.60;;
12253;SDS011;6189;52.526;13.390;2022-12-10T12:01:47;18.07;;;13.97;;
12253;SDS011;6189;52.526;13.390;2022-12-10T12:04:50;16.03;;;12.93;;
12253;SDS011;6189;52.526;13.390;2022-12-10T12:07:48;14.90;;;13.30;;
12253;SDS011;6189;52.526;13.390;2022-12-10T12:10:47;16.07;;;13.43;;
12253;SDS011;6189;52.526;13.390;2022-12-10T12:13:46;14.93;;;13.27;;
12253;SDS011;6189;52.526;13.390;2022-12-10T12:16:37;21.90;;;14.40;;
12253;SDS011;6189;52.526;13.390;2022-12-10T12:19:31;16.23;;;13.60;;
12253;SDS011;6189;52.526;13.390;2022-12-10T12:22:22;17.03;;;13.60;;
12253;SDS011;6189;52.526;13.390;2022-12-10T12:25:14;17.87;;;14.47;;
12253;SDS011;6189;52.526;13.390;2022-12-10T12:28:09;15.63;;;13.43;;
12253;SDS011;6189;52.526;13.390;2022-12-10T12:31:00;16.87;;;13.60;;
12253;SDS011;6189;52.526;13.390;2022-12-10T12:33:50;16.77;;;14.07;;
12253;SDS011;6189;52.526;13.390;2022-12-10T12:36:42;16.70;;;13.93;;
12253;SDS011;6189;52.526;13.390;2022-12-10T12:39:30;17.80;;;14.60;;
12253;SDS011;6189;52.526;13.390;2022-12-10T12:42:23;17.37;;;14.30;;
12253;SDS011;6189;52.526;13.390;2022-12-10T12:45:13;17.07;;;13.67;;
12253;SDS011;6189;52.526;13.390;2022-12-10T12:48:04;16.77;;;13.83;;
12253;SDS011;6189;52.526;13.390;2022-12-10T12:51:00;16.27;;;13.43;;
12253;SDS011;6189;52.526;13.390;2022-12-10T12:53:51;15.33;;;13.60;;
12253;SDS011;6189;52.526;13.390;2022-12-10T12:56:52;17.57;;;15.20;;
12253;SDS011;6189;52.526;13.390;2022-12-10T12:59:51;16.17;;;13.73;;
12253;SDS011;6189;52.526;13.390;2022-12-10T13:02:43;16.57;;;13.87;;
12253;SDS011;6189;52.526;13.390;2022-12-10T13:05:36;16.97;;;15.07;;
12253;SDS011;6189;52.526;13.390;2022-12-10T13:08:24;16.93;;;14.53;;
12253;SDS011;6189;52.526;13.390;2022-12-10T13:11:27;15.80;;;13.57;;
12253;SDS011;6189;52.526;13.390;2022-12-10T13:14:16;16.13;;;14.37;;
12253;SDS011;6189;52.526;13.390;2022-12-10T13:20:29;16.87;;;15.10;;
12253;SDS011;6189;52.526;13.390;2022-12-10T13:23:28;18.50;;;15.50;;
12253;SDS011;6189;52.526;13.390;2022-12-10T13:26:25;19.43;;;15.70;;
12253;SDS011;6189;52.526;13.390;2022-12-10T13:29:19;19.23;;;15.07;;
12253;SDS011;6189;52.526;13.390;2022-12-10T13:32:14;19.27;;;15.67;;
12253;SDS011;6189;52.526;13.390;2022-12-10T13:38:18;20.27;;;15.90;;
12253;SDS011;6189;52.526;13.390;2022-12-10T13:41:06;19.87;;;15.90;;
12253;SDS011;6189;52.526;13.390;2022-12-10T13:47:21;18.37;;;15.87;;
12253;SDS011;6189;52.526;13.390;2022-12-10T13:50:14;20.20;;;15.93;;
12253;SDS011;6189;52.526;13.390;2022-12-10T13:53:03;21.20;;;15.80;;
12253;SDS011;6189;52.526;13.390;2022-12-10T13:55:59;22.17;;;17.10;;
12253;SDS011;6189;52.526;13.390;2022-12-10T13:58:54;20.30;;;15.93;;
12253;SDS011;6189;52.526;13.390;2022-12-10T14:01:57;21.97;;;16.63;;
12253;SDS011;6189;52.526;13.390;2022-12-10T14:08:17;23.10;;;16.50;;
12253;SDS011;6189;52.526;13.390;2022-12-10T14:11:10;23.90;;;15.90;;
12253;SDS011;6189;52.526;13.390;2022-12-10T14:14:01;23.77;;;15.83;;
12253;SDS011;6189;52.526;13.390;2022-12-10T14:16:48;27.10;;;16.87;;
12253;SDS011;6189;52.526;13.390;2022-12-10T14:19:35;22.20;;;15.67;;
12253;SDS011;6189;52.526;13.390;2022-12-10T14:22:23;23.77;;;16.27;;
12253;SDS011;6189;52.526;13.390;2022-12-10T14:25:14;24.37;;;16.40;;
12253;SDS011;6189;52.526;13.390;2022-12-10T14:28:11;24.00;;;16.37;;
12253;SDS011;6189;52.526;13.390;2022-12-10T14:30:58;22.80;;;16.20;;
12253;SDS011;6189;52.526;13.390;2022-12-10T14:33:45;24.77;;;16.17;;
12253;SDS011;6189;52.526;13.390;2022-12-10T14:36:36;25.30;;;17.47;;
12253;SDS011;6189;52.526;13.390;2022-12-10T14:39:26;23.63;;;16.40;;
12253;SDS011;6189;52.526;13.390;2022-12-10T14:42:13;25.67;;;17.20;;
12253;SDS011;6189;52.526;13.390;2022-12-10T14:45:02;27.03;;;16.30;;
12253;SDS011;6189;52.526;13.390;2022-12-10T14:47:49;25.93;;;15.67;;
12253;SDS011;6189;52.526;13.390;2022-12-10T14:50:34;25.70;;;16.60;;
12253;SDS011;6189;52.526;13.390;2022-12-10T14:53:24;28.90;;;17.53;;
12253;SDS011;6189;52.526;13.390;2022-12-10T14:56:11;29.20;;;16.20;;
12253;SDS011;6189;52.526;13.390;2022-12-10T14:59:05;29.67;;;17.53;;
12253;SDS011;6189;52.526;13.390;2022-12-10T15:01:56;31.30;;;17.00;;
12253;SDS011;6189;52.526;13.390;2022-12-10T15:04:45;30.33;;;17.73;;
12253;SDS011;6189;52.526;13.390;2022-12-10T15:07:33;27.47;;;16.70;;
12253;SDS011;6189;52.526;13.390;2022-12-10T15:10:23;29.03;;;18.53;;
12253;SDS011;6189;52.526;13.390;2022-12-10T15:13:13;29.07;;;16.43;;
12253;SDS011;6189;52.526;13.390;2022-12-10T15:16:04;29.53;;;17.37;;
12253;SDS011;6189;52.526;13.390;2022-12-10T15:18:50;26.27;;;17.03;;
12253;SDS011;6189;52.526;13.390;2022-12-10T15:21:42;27.73;;;17.03;;
12253;SDS011;6189;52.526;13.390;2022-12-10T15:24:35;33.17;;;18.77;;
12253;SDS011;6189;52.526;13.390;2022-12-10T15:27:24;36.47;;;17.63;;
12253;SDS011;6189;52.526;13.390;2022-12-10T15:30:21;31.30;;;17.73;;
12253;SDS011;6189;52.526;13.390;2022-12-10T15:33:18;36.47;;;19.17;;
12253;SDS011;6189;52.526;13.390;2022-12-10T15:36:14;31.47;;;17.50;;
12253;SDS011;6189;52.526;13.390;2022-12-10T15:39:04;35.67;;;18.70;;
12253;SDS011;6189;52.526;13.390;2022-12-10T15:41:57;34.33;;;18.70;;
12253;SDS011;6189;52.526;13.390;2022-12-10T15:44:45;36.43;;;18.73;;
12253;SDS011;6189;52.526;13.390;2022-12-10T15:47:31;36.00;;;18.07;;
12253;SDS011;6189;52.526;13.390;2022-12-10T15:50:21;33.47;;;18.43;;
12253;SDS011;6189;52.526;13.390;2022-12-10T15:53:08;36.87;;;17.53;;
12253;SDS011;6189;52.526;13.390;2022-12-10T15:55:55;34.90;;;18.63;;
12253;SDS011;6189;52.526;13.390;2022-12-10T15:58:41;31.87;;;18.50;;
12253;SDS011;6189;52.526;13.390;2022-12-10T16:01:28;36.53;;;19.53;;
12253;SDS011;6189;52.526;13.390;2022-12-10T16:04:17;36.17;;;18.13;;
12253;SDS011;6189;52.526;13.390;2022-12-10T16:07:06;34.90;;;19.73;;
12253;SDS011;6189;52.526;13.390;2022-12-10T16:09:52;37.47;;;19.50;;
12253;SDS011;6189;52.526;13.390;2022-12-10T16:12:41;33.63;;;18.67;;
12253;SDS011;6189;52.526;13.390;2022-12-10T16:15:29;41.40;;;19.80;;
12253;SDS011;6189;52.526;13.390;2022-12-10T16:18:20;40.17;;;19.40;;
12253;SDS011;6189;52.526;13.390;2022-12-10T16:21:06;44.43;;;19.47;;
12253;SDS011;6189;52.526;13.390;2022-12-10T16:23:52;35.10;;;19.43;;
12253;SDS011;6189;52.526;13.390;2022-12-10T16:26:38;41.53;;;21.20;;
12253;SDS011;6189;52.526;13.390;2022-12-10T16:29:23;38.37;;;19.70;;
12253;SDS011;6189;52.526;13.390;2022-12-10T16:32:09;37.67;;;20.70;;
12253;SDS011;6189;52.526;13.390;2022-12-10T16:34:57;43.33;;;20.33;;
12253;SDS011;6189;52.526;13.390;2022-12-10T16:37:43;40.53;;;21.27;;
12253;SDS011;6189;52.526;13.390;2022-12-10T16:40:29;45.30;;;21.83;;